KTUL/TUL METAR and TAF weather

Enter ICAO airport designator
Station Type Date Time Source
KTUL METAR 2019/10/23 11:53 UTC NOAA

KTUL 231153Z 17011KT 10SM SCT250 11/03 A2999 RMK AO2 SLP155 T01110028 10128 20089 53003


Station Type Date Time Source
KTUL Decoded METAR 2019/10/23 11:53 UTC NOAA

TULSA INTERNATIONAL AIRPORT, OK, United States (KTUL) 36-12N 95-53W 207M
Oct 23, 2019 - 07:53 AM EDT / 2019.10.23 1153 UTC
Wind: from the S (170 degrees) at 13 MPH (11 KT):0
Visibility: 10 mile(s):0
Sky conditions: partly cloudy
Temperature: 52.0 F (11.1 C)
Dew Point: 37.0 F (2.8 C)
Relative Humidity: 56%
Pressure (altimeter): 29.99 in. Hg (1015 hPa)
Pressure tendency: 0.01 inches (0.3 hPa) higher than three hours ago
ob: KTUL 231153Z 17011KT 10SM SCT250 11/03 A2999 RMK AO2 SLP155 T01110028 10128 20089 53003
cycle: 12

Station Type Date Time Source
KTUL TAF 2019/10/23 12:22 UTC NOAA

TAF KTUL 231120Z 2312/2412 17010KT P6SM SCT250
FM231700 18019G29KT P6SM SCT250
FM240000 16005KT P6SM BKN100
FM240300 04007KT P6SM OVC100
FM240600 03008KT 3SM -RA OVC050
TEMPO 2408/2412 1SM -TSRA OVC010CB

Example: see airport list